Time;durP1;ratioP1;P1;durP2;ratioP2;P2;SDS_P1;SDS_P2;PMS_P1;PMS_P2;Temp;Humidity;BMP_temperature;BMP_pressure;BME280_temperature;BME280_humidity;BME280_pressure;Samples;Min_cycle;Max_cycle;Signal;HPM_P1;HPM_P2
2024/01/01 00:02:20;;;;;;;582.63;535.15;;;6.90;99.90;;;;;;5026769;28;20037;-76
2024/01/01 00:04:45;;;;;;;581.58;532.75;;;6.90;99.90;;;;;;5041442;28;20358;-75
2024/01/01 00:07:11;;;;;;;613.07;560.67;;;6.80;99.90;;;;;;5038647;28;20061;-75
2024/01/01 00:09:38;;;;;;;609.50;558.63;;;6.80;99.90;;;;;;5039275;28;20065;-75
2024/01/01 00:12:08;;;;;;;419.50;387.90;;;6.70;99.90;;;;;;5042706;28;20271;-74
2024/01/01 00:14:35;;;;;;;491.30;453.00;;;6.70;99.90;;;;;;5024485;28;20069;-75
2024/01/01 00:17:01;;;;;;;525.88;483.85;;;6.60;99.90;;;;;;5008142;28;20049;-75
2024/01/01 00:19:27;;;;;;;475.17;438.83;;;6.60;99.90;;;;;;5018115;28;20044;-75
2024/01/01 00:21:53;;;;;;;379.83;352.97;;;6.60;99.90;;;;;;5044397;28;20124;-75
2024/01/01 00:24:19;;;;;;;591.70;543.53;;;6.50;99.90;;;;;;5036588;28;20529;-75
2024/01/01 00:26:46;;;;;;;441.07;408.37;;;6.50;99.90;;;;;;5021579;28;20037;-75
2024/01/01 00:29:12;;;;;;;435.65;403.08;;;6.50;99.90;;;;;;5036264;28;20044;-74
2024/01/01 00:31:42;;;;;;;469.60;434.40;;;6.50;99.90;;;;;;5041314;28;20053;-75
2024/01/01 00:34:09;;;;;;;445.15;410.40;;;6.60;99.90;;;;;;5038715;28;20045;-75
2024/01/01 00:36:34;;;;;;;405.13;375.98;;;6.60;99.90;;;;;;5058505;28;20452;-76
2024/01/01 00:39:00;;;;;;;510.33;470.83;;;6.60;99.90;;;;;;5043921;28;20045;-75
2024/01/01 00:41:26;;;;;;;604.95;554.88;;;6.60;99.90;;;;;;5043744;28;20076;-76
2024/01/01 00:43:52;;;;;;;373.03;347.10;;;6.60;99.90;;;;;;5041285;28;20124;-76
2024/01/01 00:46:17;;;;;;;422.30;391.17;;;6.60;99.90;;;;;;5026404;28;20131;-77
2024/01/01 00:48:43;;;;;;;394.80;366.57;;;6.60;99.90;;;;;;5045904;28;20083;-75
2024/01/01 00:51:09;;;;;;;508.55;468.05;;;6.60;99.90;;;;;;5028309;28;20099;-75
2024/01/01 00:53:36;;;;;;;509.33;468.50;;;6.60;99.90;;;;;;5026151;28;20045;-75
2024/01/01 00:56:02;;;;;;;682.67;617.08;;;6.50;99.90;;;;;;5045526;28;20076;-77
2024/01/01 00:58:27;;;;;;;490.38;452.67;;;6.60;99.90;;;;;;5042566;28;20572;-75
2024/01/01 01:00:56;;;;;;;709.00;641.67;;;6.60;99.90;;;;;;5029498;28;20135;-76
2024/01/01 01:03:22;;;;;;;642.90;584.40;;;6.60;99.90;;;;;;5042678;28;20580;-75
2024/01/01 01:05:48;;;;;;;546.73;502.33;;;6.60;99.90;;;;;;5045535;28;20131;-75
2024/01/01 01:08:15;;;;;;;570.00;523.20;;;6.60;99.90;;;;;;5046146;28;20033;-77
2024/01/01 01:10:42;;;;;;;573.85;527.85;;;6.60;99.90;;;;;;5028849;28;20124;-75
2024/01/01 01:13:09;;;;;;;515.20;472.05;;;6.60;99.90;;;;;;5042959;28;20501;-76
2024/01/01 01:15:36;;;;;;;542.53;472.88;;;6.50;99.90;;;;;;5039936;28;20048;-76
2024/01/01 01:18:02;;;;;;;546.15;500.55;;;6.50;99.90;;;;;;5043627;28;20392;-76
2024/01/01 01:20:28;;;;;;;421.08;389.02;;;6.50;99.90;;;;;;5025270;28;20048;-76
2024/01/01 01:22:54;;;;;;;517.13;476.75;;;6.40;99.90;;;;;;5020234;28;20060;-76
2024/01/01 01:25:20;;;;;;;582.50;534.27;;;6.40;99.90;;;;;;5037356;28;20045;-75
2024/01/01 01:27:47;;;;;;;589.40;535.25;;;6.40;99.90;;;;;;5035950;28;20052;-75
2024/01/01 01:30:13;;;;;;;495.98;455.88;;;6.40;99.90;;;;;;5025660;28;20528;-75
2024/01/01 01:32:40;;;;;;;539.77;494.93;;;6.50;99.90;;;;;;5027698;28;20061;-76
2024/01/01 01:35:07;;;;;;;572.53;523.03;;;6.50;99.90;;;;;;5042467;28;20066;-75
2024/01/01 01:37:34;;;;;;;628.78;569.10;;;6.50;99.90;;;;;;5037871;28;20043;-76
2024/01/01 01:40:00;;;;;;;671.15;608.20;;;6.50;99.90;;;;;;5038921;28;20037;-76
2024/01/01 01:42:26;;;;;;;484.53;444.70;;;6.60;99.90;;;;;;5038155;28;20383;-75
2024/01/01 01:44:53;;;;;;;698.80;634.35;;;6.60;99.90;;;;;;5041611;28;20282;-75
2024/01/01 01:47:19;;;;;;;548.13;501.33;;;6.60;99.90;;;;;;5038878;28;20037;-76
2024/01/01 01:49:46;;;;;;;568.30;508.92;;;6.60;99.90;;;;;;5035940;28;20060;-76
2024/01/01 01:52:13;;;;;;;563.17;514.63;;;6.50;99.90;;;;;;5039930;28;20526;-75
2024/01/01 01:54:39;;;;;;;565.47;516.75;;;6.50;99.90;;;;;;5038678;28;20038;-75
2024/01/01 01:57:09;;;;;;;553.08;506.08;;;6.40;99.90;;;;;;5037698;28;20045;-76
2024/01/01 01:59:35;;;;;;;576.55;525.60;;;6.40;99.90;;;;;;5035526;28;20044;-76
2024/01/01 02:02:01;;;;;;;563.08;516.30;;;6.30;99.90;;;;;;5029799;28;20040;-76
2024/01/01 02:04:27;;;;;;;674.63;610.20;;;6.30;99.90;;;;;;5026430;28;20110;-77
2024/01/01 02:06:53;;;;;;;589.78;539.35;;;6.20;99.90;;;;;;5045652;28;20170;-75
2024/01/01 02:09:20;;;;;;;543.58;500.08;;;6.20;99.90;;;;;;5042522;28;20501;-76
2024/01/01 02:11:46;;;;;;;837.33;746.30;;;6.20;99.90;;;;;;5028770;28;20037;-76
2024/01/01 02:14:16;;;;;;;507.27;465.95;;;6.20;99.90;;;;;;5044515;28;20039;-75
2024/01/01 02:16:45;;;;;;;607.28;553.80;;;6.10;99.90;;;;;;5046023;28;20620;-75
2024/01/01 02:19:19;;;;;;;528.38;485.15;;;6.10;99.90;;;;;;5045621;28;20141;-74
2024/01/01 02:21:52;;;;;;;489.67;450.42;;;6.10;99.90;;;;;;5024603;28;20638;-74
2024/01/01 02:24:20;;;;;;;600.72;551.25;;;6.10;99.90;;;;;;5042521;28;20037;-74
2024/01/01 02:26:49;;;;;;;416.45;385.85;;;6.10;99.90;;;;;;5039293;28;20084;-74
2024/01/01 02:29:18;;;;;;;634.42;578.30;;;6.10;99.90;;;;;;5043072;28;20060;-75
2024/01/01 02:31:48;;;;;;;565.72;519.67;;;6.10;99.90;;;;;;5026986;28;20053;-75
2024/01/01 02:34:16;;;;;;;566.70;520.72;;;6.20;99.90;;;;;;5042461;28;20110;-75
2024/01/01 02:36:42;;;;;;;528.63;487.08;;;6.20;99.90;;;;;;5042671;28;20094;-75
2024/01/01 02:39:11;;;;;;;708.38;643.50;;;6.10;99.90;;;;;;5041712;28;20041;-75
2024/01/01 02:41:40;;;;;;;504.15;464.55;;;6.10;99.90;;;;;;5026678;28;20032;-74
2024/01/01 02:44:09;;;;;;;600.63;550.33;;;6.20;99.90;;;;;;5044416;28;20044;-74
2024/01/01 02:46:38;;;;;;;603.22;549.45;;;6.20;99.90;;;;;;5041340;28;20498;-74
2024/01/01 02:49:03;;;;;;;577.35;530.50;;;6.20;99.90;;;;;;5024475;28;20048;-74
2024/01/01 02:51:30;;;;;;;494.40;456.27;;;6.20;99.90;;;;;;5045895;28;20033;-74
2024/01/01 02:53:57;;;;;;;519.42;477.98;;;6.20;99.90;;;;;;5045856;28;20033;-75
2024/01/01 02:56:30;;;;;;;464.30;430.52;;;6.20;99.90;;;;;;5046930;28;20123;-74
2024/01/01 02:58:56;;;;;;;631.63;576.25;;;6.20;99.90;;;;;;5027070;28;20401;-75
2024/01/01 03:01:23;;;;;;;642.20;587.28;;;6.20;99.90;;;;;;5026305;28;20049;-74
2024/01/01 03:03:50;;;;;;;581.75;535.97;;;6.30;99.90;;;;;;5043877;28;20049;-74
2024/01/01 03:06:19;;;;;;;571.17;524.88;;;6.20;99.90;;;;;;5041931;28;20061;-74
2024/01/01 03:08:47;;;;;;;577.63;530.38;;;6.20;99.90;;;;;;5046386;28;20112;-75
2024/01/01 03:11:14;;;;;;;499.88;460.42;;;6.20;99.90;;;;;;5045922;28;20037;-74
2024/01/01 03:13:42;;;;;;;594.67;538.25;;;6.20;99.90;;;;;;5024548;28;20044;-75
2024/01/01 03:16:10;;;;;;;517.92;476.88;;;6.20;99.90;;;;;;5040708;28;20072;-74
2024/01/01 03:18:36;;;;;;;576.33;527.80;;;6.20;99.90;;;;;;5027347;28;20131;-74
2024/01/01 03:21:03;;;;;;;563.58;516.58;;;6.20;99.90;;;;;;5048759;28;20067;-74
2024/01/01 03:23:29;;;;;;;489.95;451.63;;;6.20;99.90;;;;;;5047730;28;20049;-74
2024/01/01 03:25:55;;;;;;;547.15;503.17;;;6.20;99.90;;;;;;5047487;28;20512;-74
2024/01/01 03:28:22;;;;;;;361.52;336.38;;;6.20;99.90;;;;;;5062898;28;20546;-74
2024/01/01 03:30:47;;;;;;;556.93;512.03;;;6.20;99.90;;;;;;5028460;28;20037;-75
2024/01/01 03:33:16;;;;;;;443.33;410.53;;;6.20;99.90;;;;;;5045041;28;20072;-75
2024/01/01 03:35:42;;;;;;;633.60;575.75;;;6.20;99.90;;;;;;5045547;28;20052;-74
2024/01/01 03:38:09;;;;;;;569.33;525.00;;;6.20;99.90;;;;;;5031562;28;20651;-74
2024/01/01 03:40:35;;;;;;;537.53;494.77;;;6.20;99.90;;;;;;5031749;28;20041;-75
2024/01/01 03:43:02;;;;;;;492.08;453.65;;;6.30;99.90;;;;;;5048499;28;20124;-75
2024/01/01 03:45:30;;;;;;;509.40;469.35;;;6.30;99.90;;;;;;5048614;28;20052;-75
2024/01/01 03:47:59;;;;;;;565.92;516.70;;;6.30;99.90;;;;;;5047214;28;20037;-75
2024/01/01 03:50:25;;;;;;;498.92;458.40;;;6.20;99.90;;;;;;5047340;28;20486;-75
2024/01/01 03:52:51;;;;;;;435.60;404.20;;;6.20;99.90;;;;;;5047806;28;20087;-74
2024/01/01 03:55:19;;;;;;;288.23;268.80;;;6.20;99.90;;;;;;5031808;28;20114;-75
2024/01/01 03:57:46;;;;;;;532.17;490.45;;;6.20;99.90;;;;;;5031743;28;20210;-74
2024/01/01 04:00:12;;;;;;;423.23;393.27;;;6.20;99.90;;;;;;5031542;28;20386;-74
2024/01/01 04:02:42;;;;;;;474.90;438.83;;;6.20;99.90;;;;;;5029948;28;20040;-74
2024/01/01 04:05:11;;;;;;;469.67;432.83;;;6.20;99.90;;;;;;5048699;28;20033;-74
2024/01/01 04:07:41;;;;;;;449.05;415.08;;;6.20;99.90;;;;;;5044374;28;20044;-74
2024/01/01 04:10:09;;;;;;;471.20;434.85;;;6.20;99.90;;;;;;5039598;28;20052;-74
2024/01/01 04:12:37;;;;;;;368.85;343.30;;;6.20;99.90;;;;;;5046208;28;20340;-74
2024/01/01 04:15:05;;;;;;;312.23;290.83;;;6.20;99.90;;;;;;5045817;28;20389;-74
2024/01/01 04:17:33;;;;;;;466.88;432.60;;;6.20;99.90;;;;;;5030672;28;20563;-75
2024/01/01 04:20:10;;;;;;;352.75;327.65;;;6.20;99.90;;;;;;5047524;28;20037;-75
2024/01/01 04:22:45;;;;;;;497.65;458.50;;;6.20;99.90;;;;;;5047855;28;20040;-74
2024/01/01 04:25:12;;;;;;;414.48;384.13;;;6.10;99.90;;;;;;5030609;28;20143;-74
2024/01/01 04:27:40;;;;;;;425.88;393.63;;;6.10;99.90;;;;;;5029581;28;20405;-73
2024/01/01 04:30:07;;;;;;;410.35;380.20;;;6.20;99.90;;;;;;5045764;28;20037;-74
2024/01/01 04:32:35;;;;;;;424.13;392.35;;;6.20;99.90;;;;;;5045338;28;20064;-74
2024/01/01 04:35:03;;;;;;;412.77;383.25;;;6.20;99.90;;;;;;5044600;28;20134;-74
2024/01/01 04:37:30;;;;;;;277.95;259.63;;;6.20;99.90;;;;;;5031454;28;20449;-73
2024/01/01 04:39:58;;;;;;;309.50;289.77;;;6.10;99.90;;;;;;5046550;28;20044;-74
2024/01/01 04:42:25;;;;;;;556.03;510.02;;;6.20;99.90;;;;;;5031215;28;20037;-74
2024/01/01 04:44:52;;;;;;;273.88;256.48;;;6.10;99.90;;;;;;5031273;28;20049;-74
2024/01/01 04:47:18;;;;;;;396.08;368.52;;;6.10;99.90;;;;;;5047803;28;20033;-74
2024/01/01 04:49:47;;;;;;;502.57;461.97;;;6.10;99.90;;;;;;5046060;28;20125;-74
2024/01/01 04:52:14;;;;;;;632.58;578.10;;;6.10;99.90;;;;;;5047208;28;20044;-74
2024/01/01 04:54:41;;;;;;;373.77;347.85;;;6.20;99.90;;;;;;5048295;28;20394;-74
2024/01/01 04:57:07;;;;;;;443.48;409.27;;;6.20;99.90;;;;;;5047717;28;20519;-73
2024/01/01 04:59:34;;;;;;;364.90;340.17;;;6.20;99.90;;;;;;5043479;28;20120;-74
2024/01/01 05:02:02;;;;;;;426.98;397.08;;;6.20;99.90;;;;;;5047568;28;20456;-74
2024/01/01 05:04:30;;;;;;;457.35;423.40;;;6.10;99.90;;;;;;5030403;28;20048;-72
2024/01/01 05:06:56;;;;;;;293.35;275.15;;;6.20;99.90;;;;;;5046280;28;20489;-73
2024/01/01 05:09:24;;;;;;;484.35;446.52;;;6.20;99.90;;;;;;5029677;28;20045;-74
2024/01/01 05:11:50;;;;;;;547.38;503.02;;;6.20;99.90;;;;;;5031033;28;20433;-74
2024/01/01 05:14:17;;;;;;;376.05;349.40;;;6.20;99.90;;;;;;5044654;28;20401;-75
2024/01/01 05:16:47;;;;;;;279.88;262.30;;;6.20;99.90;;;;;;5027785;28;20571;-75
2024/01/01 05:19:14;;;;;;;392.58;364.48;;;6.20;99.90;;;;;;5046242;28;20304;-75
2024/01/01 05:21:40;;;;;;;526.67;484.55;;;6.20;99.90;;;;;;5047524;28;20047;-75
2024/01/01 05:24:10;;;;;;;418.52;386.20;;;6.20;99.90;;;;;;5029864;28;20033;-75
2024/01/01 05:26:37;;;;;;;415.35;384.98;;;6.30;99.90;;;;;;5026005;28;20029;-76
2024/01/01 05:29:03;;;;;;;378.02;352.67;;;6.30;99.90;;;;;;5027677;28;20029;-74
2024/01/01 05:31:30;;;;;;;415.98;385.25;;;6.30;99.90;;;;;;5029285;28;20080;-75
2024/01/01 05:33:57;;;;;;;373.33;346.08;;;6.20;99.90;;;;;;5046461;28;20049;-75
2024/01/01 05:36:22;;;;;;;302.92;283.63;;;6.30;99.90;;;;;;5047961;28;20140;-75
2024/01/01 05:38:51;;;;;;;430.70;398.20;;;6.20;99.90;;;;;;5030911;28;20131;-76
2024/01/01 05:41:17;;;;;;;475.77;439.13;;;6.20;99.90;;;;;;5044563;28;20041;-76
2024/01/01 05:43:44;;;;;;;329.52;307.05;;;6.20;99.90;;;;;;5046726;28;20045;-76
2024/01/01 05:46:11;;;;;;;608.28;557.25;;;6.20;99.90;;;;;;5044728;28;20041;-76
2024/01/01 05:48:37;;;;;;;413.95;383.23;;;6.20;99.90;;;;;;5025021;28;20033;-76
2024/01/01 05:51:03;;;;;;;399.83;370.85;;;6.20;99.90;;;;;;5022462;28;20049;-76
2024/01/01 05:53:30;;;;;;;459.35;423.63;;;6.20;99.90;;;;;;5028933;28;20048;-76
2024/01/01 05:55:58;;;;;;;401.58;372.20;;;6.20;99.90;;;;;;5046347;28;20490;-75
2024/01/01 05:58:25;;;;;;;390.45;362.38;;;6.20;99.90;;;;;;5046371;28;20102;-76
2024/01/01 06:00:51;;;;;;;370.80;342.60;;;6.30;99.90;;;;;;5045328;28;20080;-76
2024/01/01 06:03:18;;;;;;;438.53;402.17;;;6.30;99.90;;;;;;5045481;28;20075;-76
2024/01/01 06:05:45;;;;;;;405.73;375.20;;;6.30;99.90;;;;;;5046561;28;20036;-75
2024/01/01 06:08:14;;;;;;;446.17;411.50;;;6.30;99.90;;;;;;5045328;28;20059;-74
2024/01/01 06:10:40;;;;;;;408.60;377.45;;;6.30;99.90;;;;;;5026235;28;20043;-75
2024/01/01 06:13:08;;;;;;;371.67;343.43;;;6.40;99.90;;;;;;5045941;28;20393;-75
2024/01/01 06:15:37;;;;;;;559.90;512.33;;;6.40;99.90;;;;;;5042727;28;20363;-75
2024/01/01 06:18:03;;;;;;;272.13;253.05;;;6.40;99.90;;;;;;5043597;28;20102;-74
2024/01/01 06:20:32;;;;;;;423.52;393.00;;;6.40;99.90;;;;;;5045646;28;20037;-75
2024/01/01 06:22:58;;;;;;;440.05;406.83;;;6.40;99.90;;;;;;5030342;28;20099;-75
2024/01/01 06:25:25;;;;;;;519.65;476.58;;;6.40;99.90;;;;;;5028049;28;20065;-75
2024/01/01 06:27:52;;;;;;;444.67;410.15;;;6.40;99.90;;;;;;5044000;28;20037;-75
2024/01/01 06:30:22;;;;;;;431.90;398.85;;;6.40;99.90;;;;;;5043134;28;20037;-75
2024/01/01 06:32:51;;;;;;;422.27;390.40;;;6.50;99.90;;;;;;5043794;28;20092;-75
2024/01/01 06:35:20;;;;;;;334.65;309.00;;;6.50;99.90;;;;;;5029247;28;20044;-75
2024/01/01 06:37:47;;;;;;;427.52;394.55;;;6.50;99.90;;;;;;5046597;28;20420;-75
2024/01/01 06:40:15;;;;;;;442.15;408.38;;;6.50;99.90;;;;;;5027987;28;20044;-76
2024/01/01 06:42:43;;;;;;;648.53;592.88;;;6.50;99.90;;;;;;5044242;28;20095;-75
2024/01/01 06:45:09;;;;;;;520.97;479.13;;;6.60;99.90;;;;;;5025853;28;20493;-76
2024/01/01 06:47:37;;;;;;;455.65;421.85;;;6.50;99.90;;;;;;5045593;28;20048;-76
2024/01/01 06:50:06;;;;;;;297.48;277.40;;;6.40;99.90;;;;;;5022495;28;20029;-75
2024/01/01 06:52:32;;;;;;;393.77;364.73;;;6.20;99.90;;;;;;5028602;28;20112;-76
2024/01/01 06:54:58;;;;;;;376.85;349.92;;;6.10;99.90;;;;;;5029364;28;20465;-75
2024/01/01 06:57:25;;;;;;;545.08;502.10;;;6.00;99.90;;;;;;5033335;28;20037;-75
2024/01/01 06:59:54;;;;;;;641.65;584.20;;;5.90;99.90;;;;;;5032641;28;20064;-76
2024/01/01 07:02:23;;;;;;;482.08;446.02;;;5.90;99.90;;;;;;5048065;28;20036;-75
2024/01/01 07:04:50;;;;;;;507.85;469.88;;;5.80;99.90;;;;;;5048182;28;20095;-75
2024/01/01 07:07:17;;;;;;;447.70;414.05;;;5.80;99.90;;;;;;5030370;28;20048;-75
2024/01/01 07:09:44;;;;;;;485.50;446.58;;;5.70;99.90;;;;;;5049253;28;20041;-75
2024/01/01 07:12:23;;;;;;;651.67;586.88;;;5.70;99.90;;;;;;5032996;28;20436;-76
2024/01/01 07:14:51;;;;;;;494.98;455.88;;;5.70;99.90;;;;;;5043432;28;20041;-77
2024/01/01 07:17:21;;;;;;;408.17;378.30;;;5.70;99.90;;;;;;5026438;28;20557;-76
2024/01/01 07:19:52;;;;;;;362.25;336.95;;;5.80;99.90;;;;;;5050066;28;20409;-76
2024/01/01 07:22:20;;;;;;;519.47;475.35;;;5.80;99.90;;;;;;5048743;28;20103;-76
2024/01/01 07:24:47;;;;;;;368.17;342.65;;;5.80;99.90;;;;;;5032041;28;20045;-75
2024/01/01 07:27:16;;;;;;;472.10;437.05;;;5.80;99.90;;;;;;5046250;28;20409;-75
2024/01/01 07:29:42;;;;;;;397.13;368.25;;;5.80;99.90;;;;;;5033144;28;20053;-75
2024/01/01 07:32:12;;;;;;;405.98;375.50;;;5.80;99.90;;;;;;5048022;28;20082;-76
2024/01/01 07:34:40;;;;;;;575.35;525.85;;;5.80;99.90;;;;;;5032896;28;20567;-75
2024/01/01 07:37:10;;;;;;;379.42;353.58;;;5.80;99.90;;;;;;5049323;28;20069;-76
2024/01/01 07:39:37;;;;;;;352.92;327.38;;;5.70;99.90;;;;;;5044368;28;20400;-75
2024/01/01 07:42:04;;;;;;;386.95;358.52;;;5.70;99.90;;;;;;5048306;28;20091;-75
2024/01/01 07:44:31;;;;;;;393.27;364.17;;;5.70;99.90;;;;;;5050017;28;20486;-76
2024/01/01 07:46:59;;;;;;;403.48;373.50;;;5.70;99.90;;;;;;5032203;28;20049;-75
2024/01/01 07:49:27;;;;;;;326.52;303.33;;;5.70;99.90;;;;;;5032004;28;20045;-75
2024/01/01 07:51:56;;;;;;;510.77;469.13;;;5.80;99.90;;;;;;5042497;28;20091;-75
2024/01/01 07:54:23;;;;;;;606.92;552.28;;;5.90;99.90;;;;;;5029848;28;20046;-75
2024/01/01 07:56:51;;;;;;;395.00;365.08;;;5.90;99.90;;;;;;5048351;28;20656;-75
2024/01/01 07:59:17;;;;;;;439.60;405.00;;;5.90;99.90;;;;;;5046554;28;20091;-74
2024/01/01 08:01:45;;;;;;;414.70;385.57;;;6.00;99.90;;;;;;5049147;28;20056;-75
2024/01/01 08:04:14;;;;;;;434.48;403.77;;;6.00;99.90;;;;;;5045442;28;20084;-74
2024/01/01 08:06:41;;;;;;;360.17;335.88;;;6.00;99.90;;;;;;5031973;28;20087;-74
2024/01/01 08:09:07;;;;;;;402.70;373.90;;;6.00;99.90;;;;;;5048214;28;20039;-75
2024/01/01 08:11:33;;;;;;;462.13;426.60;;;6.00;99.90;;;;;;5042145;28;20036;-75
2024/01/01 08:14:00;;;;;;;542.50;500.02;;;6.10;99.90;;;;;;5045905;28;20044;-75
2024/01/01 08:16:28;;;;;;;508.75;469.42;;;6.10;99.90;;;;;;5045362;28;20033;-75
2024/01/01 08:18:56;;;;;;;544.47;501.70;;;6.10;99.90;;;;;;5048363;28;20040;-74
2024/01/01 08:21:22;;;;;;;496.60;457.20;;;6.10;99.90;;;;;;5031771;28;20036;-75
2024/01/01 08:23:50;;;;;;;601.20;551.90;;;6.20;99.90;;;;;;5048163;28;20135;-75
2024/01/01 08:26:16;;;;;;;489.88;451.70;;;6.20;99.90;;;;;;5046157;28;20465;-75
2024/01/01 08:28:51;;;;;;;647.58;590.45;;;6.10;99.90;;;;;;5048357;28;20083;-74
2024/01/01 08:31:19;;;;;;;607.30;553.50;;;6.00;99.90;;;;;;5041420;28;20037;-74
2024/01/01 08:33:47;;;;;;;402.42;371.00;;;5.90;99.90;;;;;;5048816;28;20436;-74
2024/01/01 08:36:14;;;;;;;619.72;566.92;;;5.90;99.90;;;;;;5032392;28;20578;-75
2024/01/01 08:38:42;;;;;;;410.45;381.48;;;5.80;99.90;;;;;;5030024;28;20370;-74
2024/01/01 08:41:10;;;;;;;445.55;411.17;;;5.80;99.90;;;;;;5047211;28;20052;-75
2024/01/01 08:43:37;;;;;;;395.45;366.77;;;5.80;99.90;;;;;;5031726;28;20040;-75
2024/01/01 08:46:05;;;;;;;386.27;358.35;;;5.80;99.90;;;;;;5048683;28;20039;-74
2024/01/01 08:48:34;;;;;;;457.10;422.17;;;5.80;99.90;;;;;;5031581;28;20037;-75
2024/01/01 08:51:02;;;;;;;502.50;462.90;;;5.80;99.90;;;;;;5047505;28;20041;-76
2024/01/01 08:53:31;;;;;;;413.60;382.83;;;5.80;99.90;;;;;;5031921;28;20045;-77
2024/01/01 08:55:58;;;;;;;570.60;523.50;;;5.90;99.90;;;;;;5048318;28;20131;-75
2024/01/01 08:58:24;;;;;;;313.27;291.58;;;5.90;99.90;;;;;;5047810;28;20053;-75
2024/01/01 09:00:51;;;;;;;442.43;408.60;;;5.90;99.90;;;;;;5044887;28;20041;-75
2024/01/01 09:03:18;;;;;;;316.50;295.48;;;6.00;99.90;;;;;;5031124;28;20033;-75
2024/01/01 09:05:44;;;;;;;318.63;296.45;;;6.00;99.90;;;;;;5047971;28;20041;-75
2024/01/01 09:08:14;;;;;;;457.08;422.00;;;6.00;99.90;;;;;;5031822;28;20498;-75
2024/01/01 09:10:40;;;;;;;306.70;285.00;;;6.00;99.90;;;;;;5047254;28;20499;-75
2024/01/01 09:13:07;;;;;;;301.77;280.80;;;6.10;99.90;;;;;;5030733;28;20119;-77
2024/01/01 09:15:36;;;;;;;293.10;273.42;;;6.20;99.90;;;;;;5028419;28;20044;-76
2024/01/01 09:18:06;;;;;;;272.45;254.93;;;6.20;99.90;;;;;;5036101;28;20073;-76
2024/01/01 09:20:33;;;;;;;294.50;273.92;;;6.30;99.90;;;;;;5043558;28;20049;-76
2024/01/01 09:23:00;;;;;;;396.17;364.85;;;6.30;99.90;;;;;;5048525;28;20041;-76
2024/01/01 09:25:27;;;;;;;401.67;371.50;;;6.40;99.90;;;;;;5044546;28;20098;-75
2024/01/01 09:27:55;;;;;;;645.28;588.13;;;6.40;99.90;;;;;;5044979;28;20037;-76
2024/01/01 09:30:21;;;;;;;468.90;432.67;;;6.40;99.90;;;;;;5043883;28;20342;-75
2024/01/01 09:32:52;;;;;;;539.17;495.35;;;6.50;99.90;;;;;;5027938;28;20056;-75
2024/01/01 09:35:20;;;;;;;622.97;569.60;;;6.50;99.90;;;;;;5029384;28;20098;-76
2024/01/01 09:37:52;;;;;;;598.35;546.30;;;6.50;99.90;;;;;;5047290;28;20037;-76
2024/01/01 09:40:21;;;;;;;464.95;429.45;;;6.50;99.90;;;;;;5045359;28;20044;-75
2024/01/01 09:42:50;;;;;;;648.83;581.15;;;6.50;99.90;;;;;;5043382;28;20182;-76
2024/01/01 09:45:20;;;;;;;529.13;485.75;;;6.50;99.90;;;;;;5045040;28;20044;-75
2024/01/01 09:47:52;;;;;;;609.45;554.42;;;6.60;99.90;;;;;;5028301;28;20392;-76
2024/01/01 09:50:18;;;;;;;661.10;597.35;;;6.60;99.90;;;;;;5020418;28;20053;-75
2024/01/01 09:52:45;;;;;;;696.72;630.50;;;6.70;99.90;;;;;;5031531;28;20527;-76
2024/01/01 09:55:11;;;;;;;608.55;555.13;;;6.70;99.90;;;;;;5021831;28;20485;-76
2024/01/01 09:57:42;;;;;;;602.90;547.33;;;6.70;99.90;;;;;;5044249;28;20460;-76
2024/01/01 10:00:23;;;;;;;640.08;581.97;;;6.80;99.90;;;;;;5037816;28;20489;-76
2024/01/01 10:03:04;;;;;;;491.55;452.38;;;6.90;99.90;;;;;;5023615;28;20561;-74
2024/01/01 10:05:32;;;;;;;741.70;664.25;;;6.90;99.90;;;;;;5026015;28;20494;-76
2024/01/01 10:08:08;;;;;;;502.58;462.55;;;7.00;99.90;;;;;;5044899;28;20103;-76
2024/01/01 10:10:38;;;;;;;545.55;500.08;;;7.00;99.90;;;;;;5038226;28;20056;-76
2024/01/01 10:13:24;;;;;;;682.15;616.03;;;7.00;99.90;;;;;;5039441;28;20091;-76
2024/01/01 10:15:56;;;;;;;457.55;422.83;;;7.00;99.90;;;;;;5036236;28;20049;-76
2024/01/01 10:18:21;;;;;;;476.98;439.58;;;7.10;99.90;;;;;;5026121;28;20405;-76
2024/01/01 10:20:51;;;;;;;511.50;469.87;;;7.10;99.90;;;;;;5035551;28;20049;-76
2024/01/01 10:23:23;;;;;;;626.97;572.15;;;7.10;99.90;;;;;;5035609;28;20033;-76
2024/01/01 10:26:03;;;;;;;510.10;470.67;;;7.10;99.90;;;;;;5039978;28;20528;-75
2024/01/01 10:28:30;;;;;;;642.78;587.33;;;7.10;99.90;;;;;;5021501;28;20069;-76
2024/01/01 10:30:56;;;;;;;503.33;462.83;;;7.00;99.90;;;;;;5040599;28;20041;-76
2024/01/01 10:33:25;;;;;;;770.13;689.00;;;7.00;99.90;;;;;;5039251;28;20061;-76
2024/01/01 10:35:53;;;;;;;764.75;682.00;;;7.00;99.90;;;;;;5045389;28;20521;-75
2024/01/01 10:38:19;;;;;;;479.50;442.95;;;7.00;99.90;;;;;;5040058;28;20036;-73
2024/01/01 10:40:46;;;;;;;626.70;568.72;;;7.10;99.90;;;;;;5028798;28;20037;-73
2024/01/01 10:43:13;;;;;;;541.85;496.33;;;7.00;99.90;;;;;;5045324;28;20049;-74
2024/01/01 10:45:39;;;;;;;515.90;473.25;;;7.00;99.90;;;;;;5046880;28;20041;-74
2024/01/01 10:48:06;;;;;;;705.67;642.08;;;7.00;99.90;;;;;;5040998;28;20476;-75
2024/01/01 10:50:39;;;;;;;512.50;466.92;;;7.00;99.90;;;;;;5039003;28;20520;-74
2024/01/01 10:53:18;;;;;;;504.08;464.27;;;7.00;99.90;;;;;;5025310;28;20332;-74
2024/01/01 10:56:04;;;;;;;724.47;652.13;;;7.10;99.90;;;;;;5048043;28;20433;-74
2024/01/01 10:58:37;;;;;;;;;;;7.10;99.90;;;;;;5030683;28;20048;-74
2024/01/01 11:01:11;;;;;;;608.08;553.75;;;7.20;99.90;;;;;;5043496;28;20333;-74
2024/01/01 11:03:38;;;;;;;544.45;498.02;;;7.10;99.90;;;;;;5027397;28;20074;-74
2024/01/01 11:06:27;;;;;;;662.25;604.78;;;7.10;99.90;;;;;;5041897;28;20195;-74
2024/01/01 11:08:55;;;;;;;613.08;561.17;;;7.10;99.90;;;;;;5044269;28;20033;-75
2024/01/01 11:11:27;;;;;;;790.22;708.83;;;7.20;99.90;;;;;;5023845;28;20239;-74
2024/01/01 11:13:55;;;;;;;769.65;691.35;;;7.20;99.90;;;;;;5036289;28;20222;-74
2024/01/01 11:16:22;;;;;;;757.85;679.85;;;7.30;99.90;;;;;;5043913;28;20032;-75
2024/01/01 11:18:49;;;;;;;588.95;540.53;;;7.30;99.90;;;;;;5042750;28;20126;-75
2024/01/01 11:21:29;;;;;;;760.53;689.30;;;7.30;99.90;;;;;;5043737;28;20500;-75
2024/01/01 11:24:01;;;;;;;592.85;541.20;;;7.30;99.90;;;;;;5051660;28;20049;-75
2024/01/01 11:26:35;;;;;;;737.35;661.78;;;7.30;99.90;;;;;;5036767;28;20124;-75
2024/01/01 11:29:06;;;;;;;690.88;628.83;;;7.30;99.90;;;;;;5043813;28;20060;-74
2024/01/01 11:31:34;;;;;;;723.88;651.38;;;7.30;99.90;;;;;;5017714;28;20041;-75
2024/01/01 11:34:06;;;;;;;689.33;625.05;;;7.30;99.90;;;;;;5045110;28;20040;-76
2024/01/01 11:36:33;;;;;;;664.38;601.17;;;7.30;99.90;;;;;;5043096;28;20110;-75
2024/01/01 11:39:02;;;;;;;557.17;507.70;;;7.40;99.90;;;;;;5024649;28;20102;-75
2024/01/01 11:41:29;;;;;;;624.58;567.42;;;7.40;99.90;;;;;;5041142;28;20045;-76
2024/01/01 11:44:10;;;;;;;594.28;546.30;;;7.40;99.90;;;;;;5043086;28;20041;-75
2024/01/01 11:46:37;;;;;;;739.05;666.03;;;7.50;99.90;;;;;;5026665;28;20041;-76
2024/01/01 11:49:04;;;;;;;742.97;662.65;;;7.50;99.90;;;;;;5045295;28;20312;-76
2024/01/01 11:51:48;;;;;;;646.72;592.45;;;7.50;99.90;;;;;;5043301;28;20132;-75
2024/01/01 11:54:14;;;;;;;577.65;529.78;;;7.50;99.90;;;;;;5025257;28;20055;-76
2024/01/01 11:56:41;;;;;;;566.88;520.05;;;7.50;99.90;;;;;;5025328;28;20524;-75
2024/01/01 11:59:07;;;;;;;554.47;510.40;;;7.50;99.90;;;;;;5041703;28;20109;-75
2024/01/01 12:01:36;;;;;;;658.67;586.67;;;7.50;99.90;;;;;;5023638;28;20048;-74
2024/01/01 12:04:06;;;;;;;750.92;677.08;;;7.50;99.90;;;;;;5043110;28;20116;-73
2024/01/01 12:06:33;;;;;;;650.17;593.30;;;7.50;99.90;;;;;;5042151;28;20068;-76
2024/01/01 12:09:10;;;;;;;743.20;672.17;;;7.50;99.90;;;;;;5025523;28;20032;-75
2024/01/01 12:11:41;;;;;;;609.57;550.47;;;7.50;99.90;;;;;;5039282;28;20037;-75
2024/01/01 12:14:10;;;;;;;649.15;590.40;;;7.40;99.90;;;;;;5041731;28;20295;-77
2024/01/01 12:16:37;;;;;;;845.83;740.80;;;7.40;99.90;;;;;;5026763;28;20053;-75
2024/01/01 12:19:09;;;;;;;749.50;669.78;;;7.40;99.90;;;;;;5026451;28;20524;-76
2024/01/01 12:21:38;;;;;;;799.75;719.60;;;7.40;99.90;;;;;;5025168;28;20045;-76
2024/01/01 12:24:07;;;;;;;741.30;665.95;;;7.40;99.90;;;;;;5023856;28;20043;-75